Time;durP1;ratioP1;P1;durP2;ratioP2;P2;SDS_P1;SDS_P2;PMS_P1;PMS_P2;Temp;Humidity;BMP_temperature;BMP_pressure;BME280_temperature;BME280_humidity;BME280_pressure;Samples;Min_cycle;Max_cycle;Signal;HPM_P1;HPM_P2
2021/07/28 00:00:38;;;;;;;2.20;1.80;;;25.20;63.00;;;;;;5062481;28;20416;-62
2021/07/28 00:03:04;;;;;;;2.38;1.70;;;25.20;63.00;;;;;;5062471;28;20393;-62
2021/07/28 00:05:30;;;;;;;2.00;1.70;;;25.20;63.00;;;;;;5062897;28;20478;-63
2021/07/28 00:07:56;;;;;;;2.03;1.70;;;25.20;62.90;;;;;;5062624;28;20394;-65
2021/07/28 00:10:22;;;;;;;2.03;1.70;;;25.20;63.00;;;;;;5052139;28;20399;-62
2021/07/28 00:12:47;;;;;;;1.92;1.60;;;25.20;63.00;;;;;;5062424;28;20465;-62
2021/07/28 00:15:13;;;;;;;1.80;1.60;;;25.10;62.90;;;;;;5062257;28;20431;-62
2021/07/28 00:17:51;;;;;;;3.10;1.80;;;25.10;62.80;;;;;;5062369;28;20496;-63
2021/07/28 00:25:36;;;;;;;3.05;1.92;;;25.10;62.90;;;;;;5062582;28;20379;-64
2021/07/28 00:28:02;;;;;;;2.15;1.65;;;25.10;63.00;;;;;;5062252;28;20387;-62
2021/07/28 00:30:28;;;;;;;2.20;1.70;;;25.10;63.00;;;;;;5062423;28;20471;-62
2021/07/28 00:32:54;;;;;;;2.17;1.90;;;25.10;63.00;;;;;;5061745;28;20569;-62
2021/07/28 00:35:19;;;;;;;2.30;1.90;;;25.10;62.90;;;;;;5062677;28;20391;-62
2021/07/28 00:37:45;;;;;;;2.20;1.80;;;25.10;62.90;;;;;;5062276;28;20444;-62
2021/07/28 00:40:13;;;;;;;2.50;1.90;;;25.10;63.00;;;;;;5062412;28;20426;-62
2021/07/28 00:42:39;;;;;;;2.35;1.90;;;25.10;63.00;;;;;;5062119;28;20380;-63
2021/07/28 00:45:05;;;;;;;2.03;1.73;;;25.10;63.00;;;;;;5061922;28;20396;-62
2021/07/28 00:47:30;;;;;;;2.45;1.67;;;25.10;62.90;;;;;;5062306;28;20422;-62
2021/07/28 00:49:56;;;;;;;2.22;1.67;;;25.10;63.00;;;;;;5061940;28;20391;-62
2021/07/28 00:52:22;;;;;;;2.05;1.77;;;25.10;63.00;;;;;;5062148;28;20438;-62
2021/07/28 00:54:48;;;;;;;1.70;1.50;;;25.10;62.90;;;;;;5060040;28;20391;-62
2021/07/28 00:57:14;;;;;;;2.33;1.70;;;25.10;62.90;;;;;;5061900;28;20421;-62
2021/07/28 00:59:40;;;;;;;2.10;1.55;;;25.10;62.90;;;;;;5062140;28;20411;-62
2021/07/28 01:02:06;;;;;;;2.00;1.60;;;25.10;63.00;;;;;;5062045;28;20396;-65
2021/07/28 01:04:31;;;;;;;1.95;1.63;;;25.10;63.00;;;;;;5062129;28;20798;-62
2021/07/28 01:06:59;;;;;;;1.92;1.67;;;25.00;62.90;;;;;;5061643;28;20403;-63
2021/07/28 01:09:28;;;;;;;2.47;1.85;;;25.00;62.90;;;;;;5062018;28;20426;-62
2021/07/28 01:12:02;;;;;;;2.40;1.80;;;25.00;63.00;;;;;;5061827;28;20384;-62
2021/07/28 01:14:28;;;;;;;1.88;1.67;;;25.00;62.90;;;;;;5052592;28;20952;-62
2021/07/28 01:16:55;;;;;;;2.40;1.80;;;25.00;63.00;;;;;;5061347;28;20495;-62
2021/07/28 01:19:26;;;;;;;2.00;1.70;;;25.00;62.90;;;;;;5061981;28;20454;-62
2021/07/28 01:21:53;;;;;;;2.07;1.60;;;25.00;63.00;;;;;;5062079;28;20438;-62
2021/07/28 01:24:20;;;;;;;1.90;1.60;;;25.00;63.00;;;;;;5061140;28;20384;-68
2021/07/28 01:26:46;;;;;;;2.35;1.80;;;25.00;63.00;;;;;;5060800;28;20883;-62
2021/07/28 01:29:12;;;;;;;2.00;1.65;;;25.00;63.00;;;;;;5061700;28;20433;-62
2021/07/28 01:31:40;;;;;;;1.90;1.70;;;25.00;63.00;;;;;;5061702;28;20379;-62
2021/07/28 01:34:07;;;;;;;2.53;1.75;;;25.00;63.10;;;;;;5061686;28;20401;-63
2021/07/28 01:36:33;;;;;;;1.80;1.53;;;25.00;63.00;;;;;;5061707;28;20395;-62
2021/07/28 01:38:59;;;;;;;1.92;1.70;;;25.00;63.00;;;;;;5061251;28;20944;-62
2021/07/28 01:41:26;;;;;;;2.25;1.80;;;25.00;63.00;;;;;;5061225;28;21083;-62
2021/07/28 01:43:51;;;;;;;1.90;1.70;;;24.90;63.00;;;;;;5060498;28;20387;-62
2021/07/28 01:46:18;;;;;;;2.40;1.60;;;24.90;63.10;;;;;;5061762;28;20437;-62
2021/07/28 01:48:44;;;;;;;2.30;1.83;;;25.00;63.10;;;;;;5061257;28;20388;-62
2021/07/28 01:51:10;;;;;;;1.90;1.67;;;25.00;63.10;;;;;;5061378;28;20388;-62
2021/07/28 01:53:36;;;;;;;2.30;1.77;;;24.90;63.00;;;;;;5061264;28;20423;-62
2021/07/28 01:56:02;;;;;;;2.20;1.85;;;24.90;63.10;;;;;;5063849;28;20421;-62
2021/07/28 01:58:28;;;;;;;2.00;1.73;;;24.90;63.10;;;;;;5065010;28;20387;-62
2021/07/28 02:00:55;;;;;;;1.73;1.53;;;24.90;63.10;;;;;;5064590;28;20419;-62
2021/07/28 02:03:20;;;;;;;2.00;1.80;;;24.90;63.00;;;;;;5064910;28;20388;-62
2021/07/28 02:05:46;;;;;;;2.07;1.60;;;24.90;63.00;;;;;;5065117;28;20436;-62
2021/07/28 02:08:14;;;;;;;2.47;1.80;;;24.90;63.00;;;;;;5064889;28;20468;-62
2021/07/28 02:10:48;;;;;;;1.88;1.50;;;24.90;63.10;;;;;;5064845;28;20396;-62
2021/07/28 02:13:18;;;;;;;2.10;1.65;;;24.90;63.10;;;;;;5064926;28;20382;-62
2021/07/28 02:15:45;;;;;;;2.53;1.70;;;24.90;63.00;;;;;;5064818;28;20399;-63
2021/07/28 02:18:11;;;;;;;2.22;1.88;;;24.90;63.10;;;;;;5050633;28;20541;-62
2021/07/28 02:20:38;;;;;;;1.90;1.70;;;24.90;63.00;;;;;;5064743;28;20416;-62
2021/07/28 02:23:04;;;;;;;2.05;1.70;;;24.90;63.10;;;;;;5063958;28;20391;-62
2021/07/28 02:25:30;;;;;;;2.00;1.80;;;24.90;63.70;;;;;;5064538;28;20808;-62
2021/07/28 02:27:55;;;;;;;2.10;1.90;;;24.90;63.10;;;;;;5053479;28;20892;-62
2021/07/28 02:30:22;;;;;;;2.42;1.70;;;24.90;63.10;;;;;;5064300;28;20394;-62
2021/07/28 02:32:48;;;;;;;2.10;1.70;;;24.80;63.00;;;;;;5064105;28;20395;-62
2021/07/28 02:35:15;;;;;;;2.40;1.95;;;24.80;63.00;;;;;;5064564;28;20394;-62
2021/07/28 02:37:42;;;;;;;2.60;1.90;;;24.80;63.10;;;;;;5063050;28;20872;-62
2021/07/28 02:40:09;;;;;;;2.15;1.75;;;24.80;63.00;;;;;;5064326;28;20761;-62
2021/07/28 02:42:36;;;;;;;3.00;2.10;;;24.90;63.10;;;;;;5064481;28;20376;-62
2021/07/28 02:45:02;;;;;;;2.50;1.95;;;24.80;63.10;;;;;;5063605;28;20978;-62
2021/07/28 02:47:27;;;;;;;2.35;1.88;;;24.80;63.10;;;;;;5064338;28;20384;-62
2021/07/28 02:49:53;;;;;;;2.20;1.87;;;24.80;63.10;;;;;;5064226;28;20470;-62
2021/07/28 02:52:19;;;;;;;2.00;1.80;;;24.80;63.10;;;;;;5064055;28;20924;-62
2021/07/28 02:54:44;;;;;;;2.13;1.70;;;24.80;63.10;;;;;;5063809;28;20419;-62
2021/07/28 02:57:10;;;;;;;2.20;1.80;;;24.80;63.20;;;;;;5063156;28;20453;-62
2021/07/28 02:59:36;;;;;;;1.98;1.50;;;24.80;63.20;;;;;;5063731;28;20423;-62
2021/07/28 03:02:01;;;;;;;1.90;1.60;;;24.80;63.20;;;;;;5063651;28;20406;-62
2021/07/28 03:04:27;;;;;;;2.22;1.77;;;24.80;63.20;;;;;;5063372;28;20376;-62
2021/07/28 03:06:53;;;;;;;2.33;1.80;;;24.80;63.20;;;;;;5062880;28;20396;-62
2021/07/28 03:09:18;;;;;;;2.40;1.70;;;24.80;63.20;;;;;;5063831;28;20391;-62
2021/07/28 03:11:44;;;;;;;2.30;1.90;;;24.80;63.20;;;;;;5049264;28;20403;-62
2021/07/28 03:14:09;;;;;;;2.20;1.80;;;24.80;63.20;;;;;;5063718;28;20375;-62
2021/07/28 03:16:35;;;;;;;2.43;1.93;;;24.80;63.10;;;;;;5063495;28;20398;-62
2021/07/28 03:19:01;;;;;;;2.30;2.00;;;24.80;63.10;;;;;;5063334;28;20384;-62
2021/07/28 03:21:26;;;;;;;1.90;1.70;;;24.80;63.10;;;;;;5049932;28;20412;-62
2021/07/28 03:23:52;;;;;;;2.30;1.80;;;24.80;63.10;;;;;;5063602;28;20390;-62
2021/07/28 03:26:18;;;;;;;2.50;1.70;;;24.80;63.10;;;;;;5063165;28;20830;-62
2021/07/28 03:28:43;;;;;;;2.25;1.80;;;24.80;63.10;;;;;;5063544;28;20376;-62
2021/07/28 03:31:09;;;;;;;2.80;1.70;;;24.80;63.10;;;;;;5062655;28;20407;-62
2021/07/28 03:33:35;;;;;;;2.90;1.90;;;24.80;63.10;;;;;;5063312;28;20430;-62
2021/07/28 03:36:01;;;;;;;2.00;1.73;;;24.70;63.10;;;;;;5063292;28;20483;-62
2021/07/28 03:38:26;;;;;;;2.53;1.80;;;24.70;63.10;;;;;;5062969;28;20479;-62
2021/07/28 03:40:52;;;;;;;2.38;1.77;;;24.70;63.00;;;;;;5048583;28;20911;-62
2021/07/28 03:43:17;;;;;;;2.23;1.60;;;24.70;63.00;;;;;;5062802;28;20913;-62
2021/07/28 03:45:43;;;;;;;4.30;1.88;;;24.80;63.20;;;;;;5063160;28;20898;-63
2021/07/28 03:48:09;;;;;;;2.70;1.57;;;24.70;63.20;;;;;;5062766;28;20479;-62
2021/07/28 03:50:35;;;;;;;2.30;1.63;;;24.70;63.40;;;;;;5062889;28;20481;-62
2021/07/28 03:53:03;;;;;;;3.00;2.15;;;24.80;64.10;;;;;;5062289;28;20464;-62
2021/07/28 03:55:28;;;;;;;3.78;1.70;;;24.80;64.10;;;;;;5063056;28;20392;-62
2021/07/28 03:57:54;;;;;;;2.47;1.60;;;24.80;64.10;;;;;;5062672;28;20383;-62
2021/07/28 04:00:20;;;;;;;5.55;1.95;;;24.80;63.60;;;;;;5062663;28;20946;-62
2021/07/28 04:02:46;;;;;;;2.65;1.80;;;24.80;64.10;;;;;;5062693;28;20376;-64
2021/07/28 04:05:13;;;;;;;3.55;1.88;;;24.80;64.00;;;;;;5062136;28;20384;-62
2021/07/28 04:07:38;;;;;;;4.68;1.95;;;24.80;64.00;;;;;;5062804;28;20466;-62
2021/07/28 04:10:04;;;;;;;3.57;2.00;;;24.80;64.30;;;;;;5062764;28;20475;-62
2021/07/28 04:12:30;;;;;;;4.18;2.00;;;24.80;64.40;;;;;;5053663;28;20600;-62
2021/07/28 04:14:56;;;;;;;3.30;2.10;;;24.80;64.60;;;;;;5062080;28;21407;-62
2021/07/28 04:17:21;;;;;;;5.43;2.50;;;24.80;63.80;;;;;;5061864;28;21705;-62
2021/07/28 04:19:50;;;;;;;4.60;2.47;;;24.80;64.30;;;;;;5062426;28;20407;-63
2021/07/28 04:22:19;;;;;;;3.17;2.45;;;24.80;64.00;;;;;;5062177;28;20427;-63
2021/07/28 04:24:45;;;;;;;4.15;2.35;;;24.80;64.30;;;;;;5061661;28;20380;-62
2021/07/28 04:27:11;;;;;;;6.32;2.60;;;24.80;64.20;;;;;;5061964;28;21255;-62
2021/07/28 04:29:37;;;;;;;4.13;2.40;;;24.80;64.00;;;;;;5062396;28;20396;-62
2021/07/28 04:32:03;;;;;;;4.43;2.60;;;24.80;64.10;;;;;;5062480;28;20455;-62
2021/07/28 04:34:29;;;;;;;4.93;2.78;;;24.70;64.00;;;;;;5062333;28;20384;-62
2021/07/28 04:36:54;;;;;;;4.10;2.80;;;24.80;64.40;;;;;;5061682;28;20804;-62
2021/07/28 04:39:20;;;;;;;4.07;2.70;;;24.70;64.20;;;;;;5062420;28;20894;-62
2021/07/28 04:41:46;;;;;;;5.45;2.70;;;24.70;64.30;;;;;;5062102;28;20391;-63
2021/07/28 04:44:12;;;;;;;5.27;2.93;;;24.70;64.50;;;;;;5062305;28;20382;-63
2021/07/28 04:46:37;;;;;;;6.70;3.08;;;24.70;64.70;;;;;;5062160;28;20733;-63
2021/07/28 04:49:03;;;;;;;4.03;2.63;;;24.70;64.50;;;;;;5061907;28;20948;-63
2021/07/28 04:51:29;;;;;;;4.80;2.85;;;24.70;64.60;;;;;;5062051;28;20387;-63
2021/07/28 04:53:55;;;;;;;4.25;2.78;;;24.70;64.60;;;;;;5061974;28;20395;-63
2021/07/28 04:56:20;;;;;;;4.17;2.50;;;24.80;64.60;;;;;;5061961;28;20783;-65
2021/07/28 04:58:46;;;;;;;4.45;2.50;;;24.80;64.50;;;;;;5061967;28;20380;-63
2021/07/28 05:01:12;;;;;;;3.28;2.58;;;24.70;64.50;;;;;;5048266;28;20432;-64
2021/07/28 05:03:38;;;;;;;3.72;2.60;;;24.80;64.50;;;;;;5059842;28;20895;-63
2021/07/28 05:06:03;;;;;;;4.80;2.63;;;24.70;64.50;;;;;;5061075;28;20392;-63
2021/07/28 05:08:29;;;;;;;3.53;2.42;;;24.80;64.60;;;;;;5060161;28;20895;-63
2021/07/28 05:10:55;;;;;;;4.10;2.23;;;24.70;64.40;;;;;;5061207;28;20388;-63
2021/07/28 05:13:21;;;;;;;4.22;2.28;;;24.70;64.40;;;;;;5061328;28;20434;-63
2021/07/28 05:15:50;;;;;;;3.05;2.03;;;24.70;64.40;;;;;;5061513;28;20391;-63
2021/07/28 05:18:16;;;;;;;3.17;2.25;;;24.70;64.30;;;;;;5061734;28;20826;-63
2021/07/28 05:20:41;;;;;;;3.08;2.08;;;24.70;64.10;;;;;;5061804;28;20407;-63
2021/07/28 05:23:07;;;;;;;3.87;2.30;;;24.70;64.20;;;;;;5061530;28;20914;-63
2021/07/28 05:25:33;;;;;;;3.95;2.67;;;24.70;64.40;;;;;;5061757;28;20426;-63
2021/07/28 05:27:59;;;;;;;4.87;2.80;;;24.70;64.50;;;;;;5061456;28;20384;-63
2021/07/28 05:30:24;;;;;;;5.28;3.10;;;24.70;65.40;;;;;;5065140;28;21317;-63
2021/07/28 05:32:50;;;;;;;5.07;3.10;;;24.80;65.60;;;;;;5065390;28;20388;-63
2021/07/28 05:35:16;;;;;;;4.30;3.20;;;24.80;65.10;;;;;;5057108;28;20427;-63
2021/07/28 05:37:41;;;;;;;4.53;3.50;;;24.70;64.80;;;;;;5065296;28;20518;-63
2021/07/28 05:40:07;;;;;;;4.47;3.53;;;24.70;64.70;;;;;;5065412;28;20454;-63
2021/07/28 05:42:33;;;;;;;5.78;3.17;;;24.70;64.50;;;;;;5065073;28;20825;-63
2021/07/28 05:45:00;;;;;;;5.05;3.20;;;24.80;64.70;;;;;;5065209;28;20483;-63
2021/07/28 05:47:27;;;;;;;4.60;2.63;;;24.80;64.50;;;;;;5065216;28;20379;-63
2021/07/28 05:49:53;;;;;;;4.10;3.00;;;24.70;64.50;;;;;;5064999;28;20418;-63
2021/07/28 05:52:18;;;;;;;3.25;2.70;;;24.70;64.40;;;;;;5065306;28;20391;-63
2021/07/28 05:54:44;;;;;;;3.13;2.80;;;24.70;64.50;;;;;;5064985;28;20394;-63
2021/07/28 05:57:10;;;;;;;3.15;2.50;;;24.70;64.40;;;;;;5064589;28;20449;-63
2021/07/28 05:59:35;;;;;;;3.20;2.50;;;24.70;64.30;;;;;;5064804;28;20454;-63
2021/07/28 06:02:01;;;;;;;3.33;2.77;;;24.70;64.40;;;;;;5065125;28;20435;-63
2021/07/28 06:04:26;;;;;;;3.58;2.60;;;24.70;64.40;;;;;;5065004;28;20376;-63
2021/07/28 06:06:52;;;;;;;3.70;2.50;;;24.70;64.20;;;;;;5064974;28;20391;-63
2021/07/28 06:09:18;;;;;;;3.75;2.53;;;24.70;64.50;;;;;;5064473;28;20391;-62
2021/07/28 06:11:43;;;;;;;3.67;2.60;;;24.70;64.20;;;;;;5065160;28;20451;-63
2021/07/28 06:14:09;;;;;;;4.00;2.60;;;24.70;64.20;;;;;;5064805;28;20406;-63
2021/07/28 06:16:35;;;;;;;3.20;2.38;;;24.70;64.10;;;;;;5064598;28;20830;-64
2021/07/28 06:19:00;;;;;;;3.00;2.50;;;24.70;64.30;;;;;;5064439;28;20394;-63
2021/07/28 06:21:26;;;;;;;3.17;2.45;;;24.70;64.00;;;;;;5064398;28;20426;-62
2021/07/28 06:23:52;;;;;;;4.07;2.40;;;24.70;64.10;;;;;;5064947;28;20388;-63
2021/07/28 06:26:17;;;;;;;2.95;2.40;;;24.70;64.10;;;;;;5064764;28;20440;-63
2021/07/28 06:28:43;;;;;;;3.67;2.33;;;24.80;64.20;;;;;;5064606;28;20786;-63
2021/07/28 06:31:09;;;;;;;3.35;2.45;;;24.80;64.30;;;;;;5063989;28;20441;-63
2021/07/28 06:33:34;;;;;;;4.03;2.70;;;24.80;64.20;;;;;;5050127;28;20465;-63
2021/07/28 06:36:00;;;;;;;3.57;2.63;;;24.80;64.10;;;;;;5063783;28;20400;-63
2021/07/28 06:38:26;;;;;;;4.10;2.75;;;24.80;66.30;;;;;;5064141;28;20744;-63
2021/07/28 06:40:51;;;;;;;3.17;2.47;;;24.80;66.20;;;;;;5063287;28;20423;-63
2021/07/28 06:43:17;;;;;;;5.30;2.70;;;24.80;65.50;;;;;;5063494;28;20799;-63
2021/07/28 06:45:43;;;;;;;3.93;2.70;;;24.80;65.40;;;;;;5063909;28;20403;-68
2021/07/28 06:48:08;;;;;;;3.30;2.60;;;24.80;65.90;;;;;;5064006;28;20401;-64
2021/07/28 06:50:34;;;;;;;4.07;2.58;;;24.80;65.60;;;;;;5064264;28;20401;-63
2021/07/28 06:53:00;;;;;;;4.80;2.60;;;24.90;65.60;;;;;;5063699;28;20387;-63
2021/07/28 06:55:28;;;;;;;2.93;2.50;;;24.90;65.10;;;;;;5064105;28;20848;-63
2021/07/28 06:57:53;;;;;;;3.45;2.42;;;24.90;65.30;;;;;;5063674;28;20409;-63
2021/07/28 07:00:19;;;;;;;3.10;2.60;;;24.80;64.80;;;;;;5047972;28;20424;-63
2021/07/28 07:02:45;;;;;;;4.33;2.43;;;24.90;65.20;;;;;;5064162;28;20391;-63
2021/07/28 07:05:11;;;;;;;3.13;2.67;;;24.90;65.20;;;;;;5063715;28;20558;-65
2021/07/28 07:07:37;;;;;;;3.00;2.28;;;24.90;65.10;;;;;;5055992;28;20475;-63
2021/07/28 07:10:08;;;;;;;3.70;2.55;;;24.90;65.00;;;;;;5063906;28;20396;-63
2021/07/28 07:12:36;;;;;;;3.33;2.30;;;24.90;64.90;;;;;;5063786;28;20962;-63
2021/07/28 07:15:02;;;;;;;3.05;2.28;;;24.90;64.40;;;;;;5063102;28;20392;-64
2021/07/28 07:17:29;;;;;;;2.85;2.40;;;24.90;64.40;;;;;;5063438;28;20771;-63
2021/07/28 07:19:55;;;;;;;3.93;2.10;;;24.80;64.30;;;;;;5063002;28;20506;-63
2021/07/28 07:22:20;;;;;;;3.30;2.35;;;24.80;64.20;;;;;;5063479;28;20419;-63
2021/07/28 07:24:46;;;;;;;3.10;2.30;;;24.80;64.20;;;;;;5064069;28;20399;-63
2021/07/28 07:27:11;;;;;;;3.22;2.25;;;24.80;64.10;;;;;;5061685;28;20410;-63
2021/07/28 07:29:37;;;;;;;2.83;2.33;;;24.80;64.00;;;;;;5063507;28;20380;-63
2021/07/28 07:32:03;;;;;;;4.22;2.35;;;24.80;64.10;;;;;;5063201;28;20396;-63
2021/07/28 07:34:29;;;;;;;2.92;2.40;;;24.80;65.10;;;;;;5063471;28;20380;-63
2021/07/28 07:36:55;;;;;;;3.65;2.40;;;24.90;66.60;;;;;;5063445;28;20384;-63
2021/07/28 07:39:21;;;;;;;4.53;2.30;;;24.90;65.50;;;;;;5062704;28;20388;-63
2021/07/28 07:41:47;;;;;;;3.53;2.67;;;24.90;65.40;;;;;;5062944;28;20441;-63
2021/07/28 07:44:12;;;;;;;5.15;2.80;;;24.90;65.30;;;;;;5063136;28;20490;-63
2021/07/28 07:46:38;;;;;;;4.80;2.53;;;24.90;67.40;;;;;;5062916;28;20422;-63
2021/07/28 07:49:04;;;;;;;5.25;2.80;;;25.00;67.40;;;;;;5062450;28;20440;-63
2021/07/28 07:51:30;;;;;;;4.70;2.57;;;25.00;66.90;;;;;;5063319;28;20392;-63
2021/07/28 07:53:59;;;;;;;2.65;2.40;;;25.00;66.10;;;;;;5063815;28;20435;-63
2021/07/28 07:56:24;;;;;;;3.05;2.30;;;25.00;66.20;;;;;;5062914;28;20453;-63
2021/07/28 07:58:50;;;;;;;4.93;2.33;;;25.10;66.60;;;;;;5062940;28;20884;-63
2021/07/28 08:01:16;;;;;;;5.53;2.38;;;25.10;65.90;;;;;;5062124;28;20460;-63
2021/07/28 08:03:42;;;;;;;3.30;2.53;;;25.00;65.60;;;;;;5062851;28;20388;-63
2021/07/28 08:06:09;;;;;;;3.58;2.63;;;25.10;66.10;;;;;;5062562;28;20443;-63
2021/07/28 08:08:36;;;;;;;4.22;2.42;;;25.10;66.50;;;;;;5062415;28;20411;-63
2021/07/28 08:11:10;;;;;;;5.00;2.15;;;25.10;66.30;;;;;;5062846;28;20395;-63
2021/07/28 08:13:36;;;;;;;5.57;2.30;;;25.10;66.30;;;;;;5061881;28;20388;-63
2021/07/28 08:16:08;;;;;;;4.60;2.50;;;25.10;66.70;;;;;;5062443;28;20387;-63
2021/07/28 08:18:33;;;;;;;3.47;2.37;;;25.10;66.30;;;;;;5062441;28;20400;-63
2021/07/28 08:20:59;;;;;;;2.88;2.28;;;25.10;65.90;;;;;;5063127;28;20767;-62
2021/07/28 08:23:26;;;;;;;3.60;2.28;;;25.10;65.90;;;;;;5061883;28;20416;-63
2021/07/28 08:25:52;;;;;;;3.37;2.30;;;25.10;66.00;;;;;;5062624;28;20457;-63
2021/07/28 08:28:17;;;;;;;3.28;2.17;;;25.10;65.80;;;;;;5061885;28;20926;-63
2021/07/28 08:30:43;;;;;;;3.10;2.30;;;25.10;65.70;;;;;;5062397;28;20402;-66
2021/07/28 08:33:09;;;;;;;4.77;2.23;;;25.10;65.40;;;;;;5061752;28;20387;-63
2021/07/28 08:35:34;;;;;;;3.15;2.25;;;25.10;65.60;;;;;;5054282;28;20830;-63
2021/07/28 08:38:00;;;;;;;2.67;2.03;;;25.20;65.40;;;;;;5062033;28;20423;-63
2021/07/28 08:40:26;;;;;;;2.90;2.37;;;25.10;64.90;;;;;;5062301;28;20890;-63
2021/07/28 08:42:54;;;;;;;2.90;2.30;;;25.10;64.70;;;;;;5062195;28;20474;-64
2021/07/28 08:45:20;;;;;;;3.28;2.10;;;25.10;64.60;;;;;;5061581;28;20380;-63
2021/07/28 08:47:46;;;;;;;3.72;2.28;;;25.10;64.40;;;;;;5062401;28;20894;-63
2021/07/28 08:50:13;;;;;;;2.60;2.15;;;25.10;64.20;;;;;;5061869;28;20384;-63
2021/07/28 08:52:40;;;;;;;2.72;2.30;;;25.10;64.10;;;;;;5062198;28;20408;-63
2021/07/28 08:55:07;;;;;;;3.10;2.10;;;25.10;64.00;;;;;;5061298;28;20406;-63
2021/07/28 08:57:34;;;;;;;3.83;2.17;;;25.10;66.00;;;;;;5061769;28;20394;-63
2021/07/28 09:00:00;;;;;;;2.92;2.08;;;25.10;66.40;;;;;;5061962;28;20430;-63
2021/07/28 09:02:27;;;;;;;4.47;2.20;;;25.10;65.80;;;;;;5062019;28;20387;-63
2021/07/28 09:04:53;;;;;;;2.70;2.10;;;25.10;66.30;;;;;;5064662;28;20387;-63
2021/07/28 09:07:21;;;;;;;2.60;2.17;;;25.10;66.00;;;;;;5066099;28;20383;-63
2021/07/28 09:09:49;;;;;;;3.13;2.20;;;25.10;65.30;;;;;;5065931;28;20403;-63
2021/07/28 09:12:15;;;;;;;2.78;2.10;;;25.10;65.20;;;;;;5065004;28;21344;-63
2021/07/28 09:14:50;;;;;;;3.90;2.33;;;25.10;64.90;;;;;;5066050;28;20528;-63
2021/07/28 09:17:20;;;;;;;2.45;2.13;;;25.10;64.70;;;;;;5065152;28;20902;-63
2021/07/28 09:19:48;;;;;;;2.70;2.27;;;25.10;64.60;;;;;;5065649;28;20407;-63
2021/07/28 09:22:15;;;;;;;2.70;2.13;;;25.10;64.30;;;;;;5065843;28;20419;-63
2021/07/28 09:24:42;;;;;;;2.60;1.85;;;25.10;63.90;;;;;;5065858;28;20384;-63
2021/07/28 09:27:08;;;;;;;2.53;1.90;;;25.10;63.80;;;;;;5065409;28;20391;-63
2021/07/28 09:29:39;;;;;;;2.70;1.75;;;25.10;64.00;;;;;;5065588;28;20391;-63
2021/07/28 09:32:06;;;;;;;3.20;2.20;;;25.10;64.30;;;;;;5065704;28;20391;-63
2021/07/28 09:34:35;;;;;;;3.08;2.20;;;25.10;64.50;;;;;;5065642;28;20875;-67
2021/07/28 09:37:13;;;;;;;2.72;1.90;;;25.10;65.80;;;;;;5065391;28;20444;-64
2021/07/28 09:39:50;;;;;;;3.00;2.10;;;25.10;66.20;;;;;;5065705;28;20460;-64
2021/07/28 09:42:28;;;;;;;2.80;2.10;;;25.20;65.60;;;;;;5065712;28;20442;-64
2021/07/28 09:44:56;;;;;;;2.50;2.00;;;25.20;65.10;;;;;;5053747;28;20733;-64
2021/07/28 09:47:26;;;;;;;2.53;2.13;;;25.20;65.10;;;;;;5058080;28;20955;-63
2021/07/28 09:50:01;;;;;;;2.90;1.97;;;25.10;64.50;;;;;;5065311;28;20934;-68
2021/07/28 09:52:29;;;;;;;2.70;2.30;;;25.10;65.00;;;;;;5065400;28;20392;-63
2021/07/28 09:54:57;;;;;;;3.42;1.92;;;25.10;64.50;;;;;;5064698;28;20445;-70
2021/07/28 09:57:27;;;;;;;3.10;2.10;;;25.10;64.00;;;;;;5063852;28;20387;-63
2021/07/28 10:00:05;;;;;;;2.30;1.77;;;25.10;63.90;;;;;;5064324;28;20416;-63
2021/07/28 10:02:33;;;;;;;2.53;1.90;;;25.10;63.70;;;;;;5064818;28;20388;-63
2021/07/28 10:05:02;;;;;;;2.65;2.00;;;25.10;63.70;;;;;;5064882;28;20433;-63
2021/07/28 10:07:30;;;;;;;2.70;1.98;;;25.10;63.60;;;;;;5064440;28;20902;-63
2021/07/28 10:10:09;;;;;;;3.08;2.05;;;25.10;63.50;;;;;;5065049;28;20391;-63
2021/07/28 10:12:37;;;;;;;2.47;1.88;;;25.10;63.50;;;;;;5064652;28;20395;-63
2021/07/28 10:15:04;;;;;;;3.05;2.10;;;25.10;63.50;;;;;;5063625;28;20376;-63
2021/07/28 10:17:32;;;;;;;3.03;2.10;;;25.00;63.40;;;;;;5063657;28;20418;-63
2021/07/28 10:19:59;;;;;;;2.33;1.80;;;25.00;63.40;;;;;;5064747;28;20399;-63
2021/07/28 10:22:25;;;;;;;2.50;2.08;;;25.00;63.40;;;;;;5064403;28;20392;-63
2021/07/28 10:24:51;;;;;;;2.78;2.30;;;25.00;63.50;;;;;;5064729;28;20391;-63
2021/07/28 10:27:17;;;;;;;2.55;2.00;;;25.00;63.40;;;;;;5064336;28;20993;-63
2021/07/28 10:29:44;;;;;;;2.40;1.90;;;25.00;63.40;;;;;;5064547;28;20462;-63
2021/07/28 10:32:27;;;;;;;2.80;2.05;;;25.00;63.30;;;;;;5065052;28;20429;-63
2021/07/28 10:34:53;;;;;;;2.53;1.98;;;25.00;63.30;;;;;;5064411;28;20387;-63
2021/07/28 10:37:28;;;;;;;3.08;2.00;;;25.00;63.40;;;;;;5064113;28;20387;-63
2021/07/28 10:39:54;;;;;;;3.33;2.15;;;25.00;63.30;;;;;;5064688;28;20408;-63
2021/07/28 10:42:42;;;;;;;3.00;2.07;;;25.00;63.40;;;;;;5064379;28;21577;-63
2021/07/28 10:45:12;;;;;;;3.97;2.05;;;25.00;63.50;;;;;;5064015;28;20387;-63
2021/07/28 10:47:45;;;;;;;3.95;2.25;;;25.00;63.70;;;;;;5064725;28;20388;-63
2021/07/28 10:50:25;;;;;;;3.00;2.13;;;25.00;63.50;;;;;;5064362;28;20423;-63
2021/07/28 10:52:51;;;;;;;2.80;1.98;;;25.00;63.40;;;;;;5064155;28;20388;-63
2021/07/28 10:55:20;;;;;;;2.85;2.00;;;25.00;63.60;;;;;;5063771;28;20383;-63
2021/07/28 10:57:48;;;;;;;2.70;2.05;;;25.00;63.40;;;;;;5064052;28;20423;-63
2021/07/28 11:00:37;;;;;;;3.40;1.90;;;25.00;63.40;;;;;;5063415;28;20416;-63
2021/07/28 11:03:06;;;;;;;3.70;2.00;;;25.00;64.10;;;;;;5063523;28;20437;-63
2021/07/28 11:05:34;;;;;;;3.35;2.08;;;25.10;63.60;;;;;;5063129;28;20596;-63
2021/07/28 11:10:30;;;;;;;3.15;2.08;;;25.00;63.40;;;;;;5063790;28;20406;-63
2021/07/28 11:12:56;;;;;;;3.25;2.03;;;25.10;63.90;;;;;;5063746;28;20388;-63
2021/07/28 11:15:22;;;;;;;3.47;2.28;;;25.00;63.30;;;;;;5062720;28;20391;-63
2021/07/28 11:17:57;;;;;;;3.40;2.00;;;25.10;63.30;;;;;;5063405;28;20399;-63
2021/07/28 11:20:31;;;;;;;2.75;1.90;;;25.00;63.20;;;;;;5063372;28;20446;-63
2021/07/28 11:23:21;;;;;;;3.92;2.10;;;25.10;63.50;;;;;;5063284;28;20398;-63
2021/07/28 11:25:56;;;;;;;5.20;2.40;;;25.10;64.10;;;;;;5063398;28;20392;-63
2021/07/28 11:28:23;;;;;;;3.72;2.10;;;25.10;64.40;;;;;;5063244;28;20395;-68
2021/07/28 11:30:59;;;;;;;3.15;2.13;;;25.10;64.30;;;;;;5063204;28;20425;-63
2021/07/28 11:33:27;;;;;;;4.20;2.10;;;25.10;63.60;;;;;;5062679;28;20387;-63
2021/07/28 11:35:53;;;;;;;3.97;1.73;;;25.20;64.10;;;;;;5063381;28;20383;-63
2021/07/28 11:38:24;;;;;;;3.30;1.80;;;25.20;64.20;;;;;;5063118;28;20475;-63
2021/07/28 11:40:52;;;;;;;3.55;1.73;;;25.20;64.10;;;;;;5062849;28;20429;-62
2021/07/28 11:43:29;;;;;;;2.72;1.25;;;25.20;64.20;;;;;;5044870;28;20403;-63
2021/07/28 11:45:56;;;;;;;3.38;1.48;;;24.90;60.90;;;;;;5063296;28;20400;-63
2021/07/28 11:48:38;;;;;;;4.18;1.60;;;24.90;63.00;;;;;;5063124;28;20437;-63
2021/07/28 11:51:11;;;;;;;2.67;1.30;;;25.00;63.30;;;;;;5063135;28;20391;-63
2021/07/28 11:53:38;;;;;;;2.95;1.40;;;25.00;63.20;;;;;;5061684;28;20398;-63
2021/07/28 11:56:12;;;;;;;2.75;1.50;;;25.00;62.90;;;;;;5093938;28;20747;-63
2021/07/28 11:58:49;;;;;;;7.32;1.70;;;25.10;62.90;;;;;;5061120;28;20421;-63
2021/07/28 12:01:33;;;;;;;4.38;1.50;;;25.10;64.50;;;;;;5060720;28;20422;-68
2021/07/28 12:04:08;;;;;;;5.57;1.50;;;25.10;64.20;;;;;;5061753;28;20875;-63
2021/07/28 12:06:42;;;;;;;2.60;1.45;;;25.10;63.40;;;;;;5062344;28;20456;-63
2021/07/28 12:09:11;;;;;;;4.10;1.52;;;25.10;63.80;;;;;;5062076;28;20384;-62
2021/07/28 12:12:08;;;;;;;2.78;1.40;;;25.20;63.50;;;;;;5062327;28;20783;-62
2021/07/28 12:14:39;;;;;;;4.07;1.52;;;25.10;63.80;;;;;;5063116;28;20391;-63
2021/07/28 12:17:24;;;;;;;2.70;1.53;;;25.10;63.80;;;;;;5062984;28;20499;-63
2021/07/28 12:20:03;;;;;;;2.72;1.50;;;25.10;63.50;;;;;;5056128;28;20447;-63
2021/07/28 12:22:32;;;;;;;3.38;1.73;;;25.20;63.60;;;;;;5049933;28;20403;-64
2021/07/28 12:25:25;;;;;;;3.30;1.55;;;25.10;63.30;;;;;;5061788;28;20384;-63
2021/07/28 12:27:57;;;;;;;2.33;1.70;;;25.10;63.00;;;;;;5054416;28;20400;-63
2021/07/28 12:30:28;;;;;;;3.55;1.80;;;25.10;62.90;;;;;;5055733;28;20405;-63
2021/07/28 12:33:06;;;;;;;2.10;1.53;;;25.10;62.90;;;;;;5063127;28;20426;-63
2021/07/28 12:35:54;;;;;;;4.03;1.85;;;25.10;63.30;;;;;;5062544;28;20398;-63
2021/07/28 12:38:21;;;;;;;4.45;1.70;;;25.10;63.30;;;;;;5052865;28;20384;-63
2021/07/28 12:40:57;;;;;;;3.85;1.70;;;25.10;63.10;;;;;;5059391;28;20518;-63
2021/07/28 12:43:28;;;;;;;3.83;1.63;;;25.10;62.90;;;;;;5062099;28;20927;-63
2021/07/28 12:45:57;;;;;;;3.83;1.50;;;25.10;63.20;;;;;;5062707;28;20439;-63
2021/07/28 12:48:24;;;;;;;3.08;1.70;;;25.10;63.20;;;;;;5062812;28;20878;-64
2021/07/28 12:50:50;;;;;;;2.85;1.58;;;25.10;62.70;;;;;;5057237;28;20399;-64
2021/07/28 12:53:16;;;;;;;2.50;1.50;;;25.10;63.00;;;;;;5061719;28;20380;-64
2021/07/28 12:55:43;;;;;;;2.55;1.33;;;25.10;63.00;;;;;;5060286;28;20399;-64
2021/07/28 12:58:08;;;;;;;3.30;1.90;;;25.10;63.00;;;;;;5061753;28;20384;-67